Popsquash, Vermont
Current Conditions -  °F | °C
As of 5:55 AM on Sunday 23 Nov 2014 (Local Time) from KFSO Reporting Station
Haze Haze  
Wind Chill: 38°   Ceiling: 1900
Heat Index: 38°   Visibility: 5mi
Dew Point: 36°   Wind: 3mph
Humidity: 91%   Direction: 190°S
Pressure: 29.99"   Gusts: NA
Location:  44.9002°N, 73.1493°W
Report Text: KFSO 231055Z AUTO 19003KT 5SM BR OVC019 04/02 A2999 RMK AO2 T00360022
Loading
Personal Weather Stations






























Interactive Weather Map New forecast layout! Learn more

10-Day Weather Forecast

Advertisements
Track Severe Weather on mobile